sensor_id;sensor_type;location;lat;lon;timestamp;P1;durP1;ratioP1;P2;durP2;ratioP2
75435;SDS011;64014;53.432;14.534;2022-12-07T00:01:08;11.05;;;4.32;;
75435;SDS011;64014;53.432;14.534;2022-12-07T00:03:42;9.52;;;4.55;;
75435;SDS011;64014;53.432;14.534;2022-12-07T00:06:09;10.70;;;5.15;;
75435;SDS011;64014;53.432;14.534;2022-12-07T00:08:36;10.48;;;5.72;;
75435;SDS011;64014;53.432;14.534;2022-12-07T00:13:32;10.65;;;4.45;;
75435;SDS011;64014;53.432;14.534;2022-12-07T00:16:03;9.35;;;4.43;;
75435;SDS011;64014;53.432;14.534;2022-12-07T00:18:31;10.52;;;4.40;;
75435;SDS011;64014;53.432;14.534;2022-12-07T00:21:04;10.02;;;4.88;;
75435;SDS011;64014;53.432;14.534;2022-12-07T00:23:31;10.50;;;5.05;;
75435;SDS011;64014;53.432;14.534;2022-12-07T00:26:17;10.27;;;5.05;;
75435;SDS011;64014;53.432;14.534;2022-12-07T00:28:49;9.35;;;4.38;;
75435;SDS011;64014;53.432;14.534;2022-12-07T00:31:17;9.25;;;4.88;;
75435;SDS011;64014;53.432;14.534;2022-12-07T00:33:45;8.40;;;3.70;;
75435;SDS011;64014;53.432;14.534;2022-12-07T00:36:13;11.20;;;4.55;;
75435;SDS011;64014;53.432;14.534;2022-12-07T00:41:16;10.93;;;4.35;;
75435;SDS011;64014;53.432;14.534;2022-12-07T00:43:47;9.70;;;5.15;;
75435;SDS011;64014;53.432;14.534;2022-12-07T00:46:14;9.32;;;4.65;;
75435;SDS011;64014;53.432;14.534;2022-12-07T00:48:41;10.00;;;4.47;;
75435;SDS011;64014;53.432;14.534;2022-12-07T00:51:07;10.25;;;4.65;;
75435;SDS011;64014;53.432;14.534;2022-12-07T00:53:35;10.60;;;5.80;;
75435;SDS011;64014;53.432;14.534;2022-12-07T00:56:04;10.00;;;4.70;;
75435;SDS011;64014;53.432;14.534;2022-12-07T01:01:02;10.57;;;4.32;;
75435;SDS011;64014;53.432;14.534;2022-12-07T01:03:28;11.57;;;5.43;;
75435;SDS011;64014;53.432;14.534;2022-12-07T01:05:55;11.05;;;5.10;;
75435;SDS011;64014;53.432;14.534;2022-12-07T01:08:21;10.32;;;4.35;;
75435;SDS011;64014;53.432;14.534;2022-12-07T01:10:48;11.63;;;4.60;;
75435;SDS011;64014;53.432;14.534;2022-12-07T01:13:14;10.25;;;4.82;;
75435;SDS011;64014;53.432;14.534;2022-12-07T01:15:41;11.55;;;4.68;;
75435;SDS011;64014;53.432;14.534;2022-12-07T01:18:07;12.13;;;4.22;;
75435;SDS011;64014;53.432;14.534;2022-12-07T01:20:34;10.95;;;4.93;;
75435;SDS011;64014;53.432;14.534;2022-12-07T01:23:00;9.77;;;5.05;;
75435;SDS011;64014;53.432;14.534;2022-12-07T01:25:27;11.27;;;4.78;;
75435;SDS011;64014;53.432;14.534;2022-12-07T01:27:52;9.70;;;5.03;;
75435;SDS011;64014;53.432;14.534;2022-12-07T01:30:20;10.98;;;5.00;;
75435;SDS011;64014;53.432;14.534;2022-12-07T01:32:46;10.63;;;4.32;;
75435;SDS011;64014;53.432;14.534;2022-12-07T01:35:12;10.57;;;4.68;;
75435;SDS011;64014;53.432;14.534;2022-12-07T01:37:38;8.40;;;3.67;;
75435;SDS011;64014;53.432;14.534;2022-12-07T01:40:04;8.10;;;3.97;;
75435;SDS011;64014;53.432;14.534;2022-12-07T01:42:32;8.93;;;4.18;;
75435;SDS011;64014;53.432;14.534;2022-12-07T01:45:20;8.73;;;4.05;;
75435;SDS011;64014;53.432;14.534;2022-12-07T01:48:02;8.32;;;4.07;;
75435;SDS011;64014;53.432;14.534;2022-12-07T01:50:30;8.55;;;3.97;;
75435;SDS011;64014;53.432;14.534;2022-12-07T01:52:58;9.15;;;4.28;;
75435;SDS011;64014;53.432;14.534;2022-12-07T01:55:27;8.82;;;4.00;;
75435;SDS011;64014;53.432;14.534;2022-12-07T01:57:54;10.48;;;4.55;;
75435;SDS011;64014;53.432;14.534;2022-12-07T02:00:21;9.98;;;4.18;;
75435;SDS011;64014;53.432;14.534;2022-12-07T02:02:48;9.40;;;3.80;;
75435;SDS011;64014;53.432;14.534;2022-12-07T02:05:23;9.20;;;3.35;;
75435;SDS011;64014;53.432;14.534;2022-12-07T02:07:50;9.93;;;4.22;;
75435;SDS011;64014;53.432;14.534;2022-12-07T02:12:50;6.90;;;3.20;;
75435;SDS011;64014;53.432;14.534;2022-12-07T02:16:34;9.20;;;3.80;;
75435;SDS011;64014;53.432;14.534;2022-12-07T02:18:48;6.70;;;3.15;;
75435;SDS011;64014;53.432;14.534;2022-12-07T02:29:40;6.93;;;3.28;;
75435;SDS011;64014;53.432;14.534;2022-12-07T02:35:07;7.68;;;3.33;;
75435;SDS011;64014;53.432;14.534;2022-12-07T02:40:27;7.80;;;3.08;;
75435;SDS011;64014;53.432;14.534;2022-12-07T02:43:12;8.95;;;3.80;;
75435;SDS011;64014;53.432;14.534;2022-12-07T02:45:55;6.95;;;2.80;;
75435;SDS011;64014;53.432;14.534;2022-12-07T02:48:28;7.95;;;3.50;;
75435;SDS011;64014;53.432;14.534;2022-12-07T02:50:56;8.68;;;3.25;;
75435;SDS011;64014;53.432;14.534;2022-12-07T02:53:41;8.43;;;3.58;;
75435;SDS011;64014;53.432;14.534;2022-12-07T02:58:57;7.45;;;2.83;;
75435;SDS011;64014;53.432;14.534;2022-12-07T03:02:27;7.38;;;3.10;;
75435;SDS011;64014;53.432;14.534;2022-12-07T03:10:00;8.38;;;2.80;;
75435;SDS011;64014;53.432;14.534;2022-12-07T03:15:12;8.95;;;3.88;;
75435;SDS011;64014;53.432;14.534;2022-12-07T03:17:43;8.95;;;4.03;;
75435;SDS011;64014;53.432;14.534;2022-12-07T03:20:12;8.77;;;3.42;;
75435;SDS011;64014;53.432;14.534;2022-12-07T03:25:09;8.38;;;4.20;;
75435;SDS011;64014;53.432;14.534;2022-12-07T03:27:46;10.05;;;3.90;;
75435;SDS011;64014;53.432;14.534;2022-12-07T03:30:22;8.55;;;3.33;;
75435;SDS011;64014;53.432;14.534;2022-12-07T03:35:25;8.88;;;4.03;;
75435;SDS011;64014;53.432;14.534;2022-12-07T03:38:08;8.88;;;4.03;;
75435;SDS011;64014;53.432;14.534;2022-12-07T03:40:44;8.95;;;4.28;;
75435;SDS011;64014;53.432;14.534;2022-12-07T03:43:10;8.95;;;3.53;;
75435;SDS011;64014;53.432;14.534;2022-12-07T03:48:21;9.00;;;4.13;;
75435;SDS011;64014;53.432;14.534;2022-12-07T03:51:00;10.25;;;4.00;;
75435;SDS011;64014;53.432;14.534;2022-12-07T03:53:36;9.63;;;3.65;;
75435;SDS011;64014;53.432;14.534;2022-12-07T03:56:26;10.50;;;3.90;;
75435;SDS011;64014;53.432;14.534;2022-12-07T03:58:54;10.05;;;4.32;;
75435;SDS011;64014;53.432;14.534;2022-12-07T04:01:20;8.07;;;3.38;;
75435;SDS011;64014;53.432;14.534;2022-12-07T04:03:47;10.73;;;4.28;;
75435;SDS011;64014;53.432;14.534;2022-12-07T04:06:13;10.98;;;4.05;;
75435;SDS011;64014;53.432;14.534;2022-12-07T04:08:39;8.13;;;3.88;;
75435;SDS011;64014;53.432;14.534;2022-12-07T04:11:05;10.25;;;4.68;;
75435;SDS011;64014;53.432;14.534;2022-12-07T04:13:30;11.00;;;5.30;;
75435;SDS011;64014;53.432;14.534;2022-12-07T04:16:16;9.43;;;4.10;;
75435;SDS011;64014;53.432;14.534;2022-12-07T04:18:42;10.48;;;4.07;;
75435;SDS011;64014;53.432;14.534;2022-12-07T04:21:07;11.82;;;6.03;;
75435;SDS011;64014;53.432;14.534;2022-12-07T04:23:33;10.43;;;4.82;;
75435;SDS011;64014;53.432;14.534;2022-12-07T04:25:59;9.35;;;4.25;;
75435;SDS011;64014;53.432;14.534;2022-12-07T04:28:25;11.32;;;4.35;;
75435;SDS011;64014;53.432;14.534;2022-12-07T04:30:50;11.80;;;5.50;;
75435;SDS011;64014;53.432;14.534;2022-12-07T04:33:16;11.68;;;5.78;;
75435;SDS011;64014;53.432;14.534;2022-12-07T04:35:42;9.73;;;4.88;;
75435;SDS011;64014;53.432;14.534;2022-12-07T04:38:08;11.10;;;4.80;;
75435;SDS011;64014;53.432;14.534;2022-12-07T04:40:34;12.23;;;5.43;;
75435;SDS011;64014;53.432;14.534;2022-12-07T04:42:59;13.05;;;5.20;;
75435;SDS011;64014;53.432;14.534;2022-12-07T04:45:25;12.07;;;5.05;;
75435;SDS011;64014;53.432;14.534;2022-12-07T04:47:51;14.05;;;6.13;;
75435;SDS011;64014;53.432;14.534;2022-12-07T04:50:17;11.75;;;5.50;;
75435;SDS011;64014;53.432;14.534;2022-12-07T04:52:43;13.05;;;5.70;;
75435;SDS011;64014;53.432;14.534;2022-12-07T04:55:08;12.07;;;5.50;;
75435;SDS011;64014;53.432;14.534;2022-12-07T04:57:34;12.43;;;5.28;;
75435;SDS011;64014;53.432;14.534;2022-12-07T05:00:00;15.38;;;6.60;;
75435;SDS011;64014;53.432;14.534;2022-12-07T05:02:25;13.18;;;6.03;;
75435;SDS011;64014;53.432;14.534;2022-12-07T05:04:51;13.25;;;5.95;;
75435;SDS011;64014;53.432;14.534;2022-12-07T05:07:17;12.77;;;5.78;;
75435;SDS011;64014;53.432;14.534;2022-12-07T05:09:43;13.68;;;6.10;;
75435;SDS011;64014;53.432;14.534;2022-12-07T05:12:08;14.85;;;6.65;;
75435;SDS011;64014;53.432;14.534;2022-12-07T05:14:34;13.98;;;5.90;;
75435;SDS011;64014;53.432;14.534;2022-12-07T05:17:00;12.65;;;5.63;;
75435;SDS011;64014;53.432;14.534;2022-12-07T05:19:26;14.40;;;5.63;;
75435;SDS011;64014;53.432;14.534;2022-12-07T05:21:51;15.05;;;6.57;;
75435;SDS011;64014;53.432;14.534;2022-12-07T05:24:17;13.40;;;5.60;;
75435;SDS011;64014;53.432;14.534;2022-12-07T05:26:43;13.48;;;6.15;;
75435;SDS011;64014;53.432;14.534;2022-12-07T05:29:11;13.48;;;6.45;;
75435;SDS011;64014;53.432;14.534;2022-12-07T05:31:38;15.35;;;6.50;;
75435;SDS011;64014;53.432;14.534;2022-12-07T05:34:04;14.38;;;5.25;;
75435;SDS011;64014;53.432;14.534;2022-12-07T05:36:29;12.10;;;4.93;;
75435;SDS011;64014;53.432;14.534;2022-12-07T05:38:56;13.93;;;5.70;;
75435;SDS011;64014;53.432;14.534;2022-12-07T05:41:22;12.77;;;5.63;;
75435;SDS011;64014;53.432;14.534;2022-12-07T05:44:07;15.05;;;5.93;;
75435;SDS011;64014;53.432;14.534;2022-12-07T05:46:33;19.60;;;8.15;;
75435;SDS011;64014;53.432;14.534;2022-12-07T05:49:02;20.13;;;8.38;;
75435;SDS011;64014;53.432;14.534;2022-12-07T05:51:28;16.77;;;7.80;;
75435;SDS011;64014;53.432;14.534;2022-12-07T05:53:54;18.13;;;7.75;;
75435;SDS011;64014;53.432;14.534;2022-12-07T05:56:19;14.88;;;6.95;;
75435;SDS011;64014;53.432;14.534;2022-12-07T05:58:45;16.85;;;7.72;;
75435;SDS011;64014;53.432;14.534;2022-12-07T06:01:29;17.25;;;8.88;;
75435;SDS011;64014;53.432;14.534;2022-12-07T06:03:55;17.48;;;8.25;;
75435;SDS011;64014;53.432;14.534;2022-12-07T06:06:21;17.70;;;7.57;;
75435;SDS011;64014;53.432;14.534;2022-12-07T06:08:46;18.20;;;7.28;;
75435;SDS011;64014;53.432;14.534;2022-12-07T06:11:12;18.45;;;8.73;;
75435;SDS011;64014;53.432;14.534;2022-12-07T06:13:56;16.48;;;7.30;;
75435;SDS011;64014;53.432;14.534;2022-12-07T06:16:22;17.23;;;8.27;;
75435;SDS011;64014;53.432;14.534;2022-12-07T06:18:48;17.05;;;8.27;;
75435;SDS011;64014;53.432;14.534;2022-12-07T06:21:13;17.58;;;7.35;;
75435;SDS011;64014;53.432;14.534;2022-12-07T06:23:39;15.15;;;6.50;;
75435;SDS011;64014;53.432;14.534;2022-12-07T06:26:05;17.60;;;8.23;;
75435;SDS011;64014;53.432;14.534;2022-12-07T06:28:31;16.38;;;8.40;;
75435;SDS011;64014;53.432;14.534;2022-12-07T06:30:57;14.00;;;6.88;;
75435;SDS011;64014;53.432;14.534;2022-12-07T06:33:24;18.77;;;7.65;;
75435;SDS011;64014;53.432;14.534;2022-12-07T06:35:50;16.23;;;6.60;;
75435;SDS011;64014;53.432;14.534;2022-12-07T06:38:16;15.75;;;8.10;;
75435;SDS011;64014;53.432;14.534;2022-12-07T06:40:42;16.67;;;7.20;;
75435;SDS011;64014;53.432;14.534;2022-12-07T06:43:07;15.75;;;6.72;;
75435;SDS011;64014;53.432;14.534;2022-12-07T06:45:33;16.17;;;7.65;;
75435;SDS011;64014;53.432;14.534;2022-12-07T06:47:59;14.70;;;5.97;;
75435;SDS011;64014;53.432;14.534;2022-12-07T06:50:25;16.08;;;7.10;;
75435;SDS011;64014;53.432;14.534;2022-12-07T06:52:51;16.67;;;7.43;;
75435;SDS011;64014;53.432;14.534;2022-12-07T06:55:17;15.02;;;7.05;;
75435;SDS011;64014;53.432;14.534;2022-12-07T06:57:43;16.67;;;7.72;;
75435;SDS011;64014;53.432;14.534;2022-12-07T07:00:09;16.20;;;6.85;;
75435;SDS011;64014;53.432;14.534;2022-12-07T07:02:35;17.40;;;7.65;;
75435;SDS011;64014;53.432;14.534;2022-12-07T07:05:01;15.32;;;5.78;;
75435;SDS011;64014;53.432;14.534;2022-12-07T07:07:27;16.60;;;7.22;;
75435;SDS011;64014;53.432;14.534;2022-12-07T07:09:53;14.95;;;6.10;;
75435;SDS011;64014;53.432;14.534;2022-12-07T07:12:19;16.65;;;6.35;;
75435;SDS011;64014;53.432;14.534;2022-12-07T07:14:45;16.20;;;6.85;;
75435;SDS011;64014;53.432;14.534;2022-12-07T07:17:10;22.55;;;10.00;;
75435;SDS011;64014;53.432;14.534;2022-12-07T07:19:36;25.75;;;10.82;;
75435;SDS011;64014;53.432;14.534;2022-12-07T07:22:02;22.23;;;9.05;;
75435;SDS011;64014;53.432;14.534;2022-12-07T07:24:29;19.50;;;8.63;;
75435;SDS011;64014;53.432;14.534;2022-12-07T07:26:54;21.15;;;7.50;;
75435;SDS011;64014;53.432;14.534;2022-12-07T07:29:20;16.35;;;6.43;;
75435;SDS011;64014;53.432;14.534;2022-12-07T07:31:46;17.98;;;7.07;;
75435;SDS011;64014;53.432;14.534;2022-12-07T07:34:12;16.40;;;7.25;;
75435;SDS011;64014;53.432;14.534;2022-12-07T07:36:37;18.52;;;7.68;;
75435;SDS011;64014;53.432;14.534;2022-12-07T07:39:03;19.88;;;7.28;;
75435;SDS011;64014;53.432;14.534;2022-12-07T07:41:29;17.40;;;7.35;;
75435;SDS011;64014;53.432;14.534;2022-12-07T07:43:55;19.25;;;7.15;;
75435;SDS011;64014;53.432;14.534;2022-12-07T07:46:21;17.80;;;7.60;;
75435;SDS011;64014;53.432;14.534;2022-12-07T07:48:47;21.05;;;8.48;;
75435;SDS011;64014;53.432;14.534;2022-12-07T07:51:13;22.17;;;8.93;;
75435;SDS011;64014;53.432;14.534;2022-12-07T07:53:39;28.13;;;9.70;;
75435;SDS011;64014;53.432;14.534;2022-12-07T07:56:04;20.70;;;8.68;;
75435;SDS011;64014;53.432;14.534;2022-12-07T07:58:30;21.88;;;8.77;;
75435;SDS011;64014;53.432;14.534;2022-12-07T08:00:56;23.48;;;9.65;;
75435;SDS011;64014;53.432;14.534;2022-12-07T08:03:22;24.73;;;10.45;;
75435;SDS011;64014;53.432;14.534;2022-12-07T08:05:47;22.17;;;7.93;;
75435;SDS011;64014;53.432;14.534;2022-12-07T08:08:13;22.98;;;11.73;;
75435;SDS011;64014;53.432;14.534;2022-12-07T08:10:39;22.02;;;9.70;;
75435;SDS011;64014;53.432;14.534;2022-12-07T08:13:05;19.75;;;7.95;;
75435;SDS011;64014;53.432;14.534;2022-12-07T08:15:36;22.08;;;7.55;;
75435;SDS011;64014;53.432;14.534;2022-12-07T08:18:03;18.35;;;8.80;;
75435;SDS011;64014;53.432;14.534;2022-12-07T08:20:30;19.77;;;7.43;;
75435;SDS011;64014;53.432;14.534;2022-12-07T08:22:56;18.23;;;7.30;;
75435;SDS011;64014;53.432;14.534;2022-12-07T08:25:22;18.25;;;7.60;;
75435;SDS011;64014;53.432;14.534;2022-12-07T08:27:48;17.17;;;7.20;;
75435;SDS011;64014;53.432;14.534;2022-12-07T08:30:14;16.50;;;6.82;;
75435;SDS011;64014;53.432;14.534;2022-12-07T08:32:40;16.00;;;7.40;;
75435;SDS011;64014;53.432;14.534;2022-12-07T08:35:06;18.73;;;8.15;;
75435;SDS011;64014;53.432;14.534;2022-12-07T08:37:33;19.50;;;6.80;;
75435;SDS011;64014;53.432;14.534;2022-12-07T08:39:59;17.85;;;7.15;;
75435;SDS011;64014;53.432;14.534;2022-12-07T08:42:24;17.38;;;6.90;;
75435;SDS011;64014;53.432;14.534;2022-12-07T08:44:54;19.20;;;7.47;;
75435;SDS011;64014;53.432;14.534;2022-12-07T08:47:23;17.00;;;7.25;;
75435;SDS011;64014;53.432;14.534;2022-12-07T08:49:50;28.17;;;11.88;;
75435;SDS011;64014;53.432;14.534;2022-12-07T08:52:18;20.15;;;8.65;;
75435;SDS011;64014;53.432;14.534;2022-12-07T08:54:43;14.98;;;7.30;;
75435;SDS011;64014;53.432;14.534;2022-12-07T08:57:10;18.15;;;8.27;;
75435;SDS011;64014;53.432;14.534;2022-12-07T08:59:36;15.80;;;7.32;;
75435;SDS011;64014;53.432;14.534;2022-12-07T09:02:03;16.33;;;7.50;;
75435;SDS011;64014;53.432;14.534;2022-12-07T09:04:29;20.48;;;9.75;;
75435;SDS011;64014;53.432;14.534;2022-12-07T09:06:55;134.07;;;98.72;;
75435;SDS011;64014;53.432;14.534;2022-12-07T09:09:21;68.68;;;43.03;;
75435;SDS011;64014;53.432;14.534;2022-12-07T09:11:47;218.15;;;88.82;;
75435;SDS011;64014;53.432;14.534;2022-12-07T09:14:13;124.45;;;49.05;;
75435;SDS011;64014;53.432;14.534;2022-12-07T09:16:39;59.67;;;32.78;;
75435;SDS011;64014;53.432;14.534;2022-12-07T09:19:05;52.03;;;34.15;;
75435;SDS011;64014;53.432;14.534;2022-12-07T09:21:31;194.98;;;76.50;;
75435;SDS011;64014;53.432;14.534;2022-12-07T09:23:58;94.57;;;36.03;;
75435;SDS011;64014;53.432;14.534;2022-12-07T09:26:23;48.67;;;23.17;;
75435;SDS011;64014;53.432;14.534;2022-12-07T09:28:49;29.98;;;18.70;;
75435;SDS011;64014;53.432;14.534;2022-12-07T09:31:15;13.00;;;5.97;;
75435;SDS011;64014;53.432;14.534;2022-12-07T09:33:41;10.65;;;5.10;;
75435;SDS011;64014;53.432;14.534;2022-12-07T09:36:06;10.20;;;4.45;;
75435;SDS011;64014;53.432;14.534;2022-12-07T09:38:33;15.13;;;5.95;;
75435;SDS011;64014;53.432;14.534;2022-12-07T09:41:03;17.88;;;11.20;;
75435;SDS011;64014;53.432;14.534;2022-12-07T09:43:31;12.98;;;6.40;;
75435;SDS011;64014;53.432;14.534;2022-12-07T09:46:00;14.20;;;7.00;;
75435;SDS011;64014;53.432;14.534;2022-12-07T09:48:29;16.60;;;8.00;;
75435;SDS011;64014;53.432;14.534;2022-12-07T09:51:12;11.63;;;7.00;;
75435;SDS011;64014;53.432;14.534;2022-12-07T09:53:43;81.70;;;43.33;;
75435;SDS011;64014;53.432;14.534;2022-12-07T09:56:13;15.55;;;9.43;;
75435;SDS011;64014;53.432;14.534;2022-12-07T09:58:40;11.45;;;6.47;;
75435;SDS011;64014;53.432;14.534;2022-12-07T10:03:34;11.90;;;6.07;;
75435;SDS011;64014;53.432;14.534;2022-12-07T10:06:02;9.38;;;5.30;;
75435;SDS011;64014;53.432;14.534;2022-12-07T10:08:29;14.13;;;10.00;;
75435;SDS011;64014;53.432;14.534;2022-12-07T10:10:55;10.90;;;6.03;;
75435;SDS011;64014;53.432;14.534;2022-12-07T10:13:33;10.18;;;4.60;;
75435;SDS011;64014;53.432;14.534;2022-12-07T10:16:01;9.18;;;4.63;;
75435;SDS011;64014;53.432;14.534;2022-12-07T10:18:31;16.27;;;7.25;;
75435;SDS011;64014;53.432;14.534;2022-12-07T10:21:01;18.85;;;9.68;;
75435;SDS011;64014;53.432;14.534;2022-12-07T10:23:28;26.63;;;20.27;;
75435;SDS011;64014;53.432;14.534;2022-12-07T10:25:54;13.43;;;6.80;;
75435;SDS011;64014;53.432;14.534;2022-12-07T10:28:20;11.75;;;5.68;;
75435;SDS011;64014;53.432;14.534;2022-12-07T10:30:51;10.95;;;6.82;;
75435;SDS011;64014;53.432;14.534;2022-12-07T10:35:54;11.43;;;6.25;;
75435;SDS011;64014;53.432;14.534;2022-12-07T10:38:20;10.82;;;6.35;;
75435;SDS011;64014;53.432;14.534;2022-12-07T10:40:46;11.88;;;6.35;;
75435;SDS011;64014;53.432;14.534;2022-12-07T10:45:55;9.43;;;5.18;;
75435;SDS011;64014;53.432;14.534;2022-12-07T10:48:34;14.70;;;7.60;;
75435;SDS011;64014;53.432;14.534;2022-12-07T11:10:13;15.15;;;7.88;;
75435;SDS011;64014;53.432;14.534;2022-12-07T11:37:00;21.00;;;14.68;;
75435;SDS011;64014;53.432;14.534;2022-12-07T11:39:34;59.65;;;37.67;;
75435;SDS011;64014;53.432;14.534;2022-12-07T11:42:12;14.63;;;8.02;;
75435;SDS011;64014;53.432;14.534;2022-12-07T11:47:55;11.52;;;7.30;;
75435;SDS011;64014;53.432;14.534;2022-12-07T11:56:34;12.90;;;6.88;;
75435;SDS011;64014;53.432;14.534;2022-12-07T11:58:55;14.63;;;8.88;;
75435;SDS011;64014;53.432;14.534;2022-12-07T12:01:35;19.08;;;12.68;;
75435;SDS011;64014;53.432;14.534;2022-12-07T12:06:37;12.38;;;8.50;;
75435;SDS011;64014;53.432;14.534;2022-12-07T12:09:21;12.13;;;6.75;;
75435;SDS011;64014;53.432;14.534;2022-12-07T12:22:41;15.18;;;7.68;;
75435;SDS011;64014;53.432;14.534;2022-12-07T12:25:29;9.70;;;5.32;;
75435;SDS011;64014;53.432;14.534;2022-12-07T12:28:03;11.27;;;4.65;;
75435;SDS011;64014;53.432;14.534;2022-12-07T12:30:32;12.77;;;5.63;;
75435;SDS011;64014;53.432;14.534;2022-12-07T12:33:12;21.73;;;7.70;;
75435;SDS011;64014;53.432;14.534;2022-12-07T12:35:48;8.57;;;2.42;;
75435;SDS011;64014;53.432;14.534;2022-12-07T12:47:02;6.07;;;3.72;;
75435;SDS011;64014;53.432;14.534;2022-12-07T12:50:11;7.93;;;3.70;;
75435;SDS011;64014;53.432;14.534;2022-12-07T12:57:32;10.15;;;4.15;;
75435;SDS011;64014;53.432;14.534;2022-12-07T12:59:59;9.13;;;3.08;;
75435;SDS011;64014;53.432;14.534;2022-12-07T13:02:35;12.07;;;3.30;;
75435;SDS011;64014;53.432;14.534;2022-12-07T13:12:59;8.73;;;4.20;;
75435;SDS011;64014;53.432;14.534;2022-12-07T13:21:41;10.30;;;4.05;;
75435;SDS011;64014;53.432;14.534;2022-12-07T13:23:56;7.82;;;3.35;;
75435;SDS011;64014;53.432;14.534;2022-12-07T13:29:07;9.32;;;6.13;;
75435;SDS011;64014;53.432;14.534;2022-12-07T13:31:53;12.82;;;6.47;;
75435;SDS011;64014;53.432;14.534;2022-12-07T13:34:29;6.65;;;3.40;;
75435;SDS011;64014;53.432;14.534;2022-12-07T13:36:59;7.70;;;2.33;;
75435;SDS011;64014;53.432;14.534;2022-12-07T13:39:32;6.20;;;2.83;;
75435;SDS011;64014;53.432;14.534;2022-12-07T13:42:06;8.13;;;2.28;;
75435;SDS011;64014;53.432;14.534;2022-12-07T13:44:40;5.13;;;3.33;;
75435;SDS011;64014;53.432;14.534;2022-12-07T13:47:09;8.38;;;4.70;;
75435;SDS011;64014;53.432;14.534;2022-12-07T13:49:51;5.75;;;1.33;;
75435;SDS011;64014;53.432;14.534;2022-12-07T13:52:20;10.07;;;4.20;;
75435;SDS011;64014;53.432;14.534;2022-12-07T13:57:26;12.93;;;5.07;;
75435;SDS011;64014;53.432;14.534;2022-12-07T13:59:53;9.95;;;5.18;;
75435;SDS011;64014;53.432;14.534;2022-12-07T14:02:29;8.00;;;2.25;;
75435;SDS011;64014;53.432;14.534;2022-12-07T14:07:52;14.25;;;6.90;;
75435;SDS011;64014;53.432;14.534;2022-12-07T14:10:26;16.27;;;9.10;;
75435;SDS011;64014;53.432;14.534;2022-12-07T14:12:54;14.43;;;7.88;;
75435;SDS011;64014;53.432;14.534;2022-12-07T14:15:22;21.95;;;8.00;;
75435;SDS011;64014;53.432;14.534;2022-12-07T14:17:52;24.20;;;10.20;;
75435;SDS011;64014;53.432;14.534;2022-12-07T14:23:01;11.63;;;4.13;;
75435;SDS011;64014;53.432;14.534;2022-12-07T14:25:44;17.02;;;6.07;;
75435;SDS011;64014;53.432;14.534;2022-12-07T14:30:57;14.07;;;5.47;;
75435;SDS011;64014;53.432;14.534;2022-12-07T14:33:24;21.58;;;8.15;;
75435;SDS011;64014;53.432;14.534;2022-12-07T14:35:50;11.18;;;4.57;;
75435;SDS011;64014;53.432;14.534;2022-12-07T14:38:20;8.38;;;2.75;;
75435;SDS011;64014;53.432;14.534;2022-12-07T14:40:47;9.93;;;6.82;;
75435;SDS011;64014;53.432;14.534;2022-12-07T14:43:14;9.40;;;4.55;;
75435;SDS011;64014;53.432;14.534;2022-12-07T14:45:41;8.75;;;3.47;;
75435;SDS011;64014;53.432;14.534;2022-12-07T14:48:11;8.40;;;3.95;;
75435;SDS011;64014;53.432;14.534;2022-12-07T14:50:41;15.00;;;8.27;;
75435;SDS011;64014;53.432;14.534;2022-12-07T14:53:11;12.25;;;4.38;;
75435;SDS011;64014;53.432;14.534;2022-12-07T14:55:39;14.60;;;5.97;;
75435;SDS011;64014;53.432;14.534;2022-12-07T14:58:05;12.32;;;5.45;;
75435;SDS011;64014;53.432;14.534;2022-12-07T15:00:31;11.52;;;4.38;;
75435;SDS011;64014;53.432;14.534;2022-12-07T15:02:58;14.77;;;7.43;;
75435;SDS011;64014;53.432;14.534;2022-12-07T15:05:24;12.38;;;5.22;;
75435;SDS011;64014;53.432;14.534;2022-12-07T15:07:50;14.07;;;5.72;;
75435;SDS011;64014;53.432;14.534;2022-12-07T15:10:24;16.83;;;8.00;;
75435;SDS011;64014;53.432;14.534;2022-12-07T15:12:57;33.72;;;12.43;;
75435;SDS011;64014;53.432;14.534;2022-12-07T15:15:49;27.80;;;15.23;;
75435;SDS011;64014;53.432;14.534;2022-12-07T15:18:16;22.52;;;10.10;;
75435;SDS011;64014;53.432;14.534;2022-12-07T15:20:43;15.23;;;7.28;;
75435;SDS011;64014;53.432;14.534;2022-12-07T15:23:09;14.05;;;7.07;;
75435;SDS011;64014;53.432;14.534;2022-12-07T15:25:36;12.05;;;4.43;;
75435;SDS011;64014;53.432;14.534;2022-12-07T15:28:05;11.82;;;5.97;;
75435;SDS011;64014;53.432;14.534;2022-12-07T15:30:31;13.18;;;6.35;;
75435;SDS011;64014;53.432;14.534;2022-12-07T15:32:56;9.57;;;4.13;;
75435;SDS011;64014;53.432;14.534;2022-12-07T15:35:22;15.63;;;7.10;;
75435;SDS011;64014;53.432;14.534;2022-12-07T15:37:48;9.75;;;3.80;;
75435;SDS011;64014;53.432;14.534;2022-12-07T15:40:14;12.27;;;5.70;;
75435;SDS011;64014;53.432;14.534;2022-12-07T15:42:40;11.75;;;6.07;;
75435;SDS011;64014;53.432;14.534;2022-12-07T15:45:06;10.73;;;4.80;;
75435;SDS011;64014;53.432;14.534;2022-12-07T15:47:37;8.93;;;3.58;;
75435;SDS011;64014;53.432;14.534;2022-12-07T15:50:05;9.75;;;4.22;;
75435;SDS011;64014;53.432;14.534;2022-12-07T15:52:33;6.20;;;2.55;;
75435;SDS011;64014;53.432;14.534;2022-12-07T15:55:00;8.27;;;2.50;;
75435;SDS011;64014;53.432;14.534;2022-12-07T15:57:27;6.10;;;2.15;;
75435;SDS011;64014;53.432;14.534;2022-12-07T15:59:53;10.77;;;4.78;;
75435;SDS011;64014;53.432;14.534;2022-12-07T16:02:19;7.38;;;3.17;;
75435;SDS011;64014;53.432;14.534;2022-12-07T16:04:45;21.15;;;8.45;;
75435;SDS011;64014;53.432;14.534;2022-12-07T16:07:11;9.30;;;3.50;;
75435;SDS011;64014;53.432;14.534;2022-12-07T16:09:39;9.82;;;3.45;;
75435;SDS011;64014;53.432;14.534;2022-12-07T16:12:05;9.77;;;3.33;;
75435;SDS011;64014;53.432;14.534;2022-12-07T16:14:31;8.73;;;4.05;;
75435;SDS011;64014;53.432;14.534;2022-12-07T16:16:58;11.15;;;4.40;;
75435;SDS011;64014;53.432;14.534;2022-12-07T16:19:24;9.20;;;3.15;;
75435;SDS011;64014;53.432;14.534;2022-12-07T16:21:50;8.20;;;2.47;;
75435;SDS011;64014;53.432;14.534;2022-12-07T16:24:15;6.68;;;2.10;;
75435;SDS011;64014;53.432;14.534;2022-12-07T16:26:42;10.48;;;3.35;;
75435;SDS011;64014;53.432;14.534;2022-12-07T16:29:10;6.32;;;2.38;;
75435;SDS011;64014;53.432;14.534;2022-12-07T16:31:37;7.57;;;1.45;;
75435;SDS011;64014;53.432;14.534;2022-12-07T16:34:04;4.55;;;1.70;;
75435;SDS011;64014;53.432;14.534;2022-12-07T16:36:30;4.60;;;1.13;;
75435;SDS011;64014;53.432;14.534;2022-12-07T16:38:57;6.85;;;2.45;;
75435;SDS011;64014;53.432;14.534;2022-12-07T16:41:24;4.60;;;1.38;;
75435;SDS011;64014;53.432;14.534;2022-12-07T16:43:49;4.63;;;1.55;;
75435;SDS011;64014;53.432;14.534;2022-12-07T16:46:15;5.85;;;1.30;;
75435;SDS011;64014;53.432;14.534;2022-12-07T16:48:41;4.28;;;1.15;;
75435;SDS011;64014;53.432;14.534;2022-12-07T16:51:08;6.13;;;1.60;;
75435;SDS011;64014;53.432;14.534;2022-12-07T16:53:36;6.60;;;1.05;;
75435;SDS011;64014;53.432;14.534;2022-12-07T16:56:04;3.90;;;1.45;;
75435;SDS011;64014;53.432;14.534;2022-12-07T16:58:34;6.35;;;1.00;;
75435;SDS011;64014;53.432;14.534;2022-12-07T17:01:07;4.38;;;1.70;;
75435;SDS011;64014;53.432;14.534;2022-12-07T17:03:35;4.25;;;0.95;;
75435;SDS011;64014;53.432;14.534;2022-12-07T17:06:01;8.15;;;2.08;;
75435;SDS011;64014;53.432;14.534;2022-12-07T17:08:26;5.88;;;1.58;;
75435;SDS011;64014;53.432;14.534;2022-12-07T17:10:52;5.85;;;1.95;;